sensor_id;sensor_type;location;lat;lon;timestamp;P1;durP1;ratioP1;P2;durP2;ratioP2
2029;SDS011;1020;48.854;8.830;2023-05-15T00:01:01;4.90;;;4.50;;
2029;SDS011;1020;48.854;8.830;2023-05-15T00:03:28;5.03;;;4.63;;
2029;SDS011;1020;48.854;8.830;2023-05-15T00:05:55;4.73;;;4.43;;
2029;SDS011;1020;48.854;8.830;2023-05-15T00:08:22;4.70;;;4.30;;
2029;SDS011;1020;48.854;8.830;2023-05-15T00:10:50;4.20;;;3.90;;
2029;SDS011;1020;48.854;8.830;2023-05-15T00:13:16;4.73;;;4.33;;
2029;SDS011;1020;48.854;8.830;2023-05-15T00:15:43;4.33;;;4.03;;
2029;SDS011;1020;48.854;8.830;2023-05-15T00:18:10;5.90;;;5.40;;
2029;SDS011;1020;48.854;8.830;2023-05-15T00:20:37;5.13;;;4.63;;
2029;SDS011;1020;48.854;8.830;2023-05-15T00:23:03;5.50;;;5.00;;
2029;SDS011;1020;48.854;8.830;2023-05-15T00:25:30;5.73;;;5.20;;
2029;SDS011;1020;48.854;8.830;2023-05-15T00:27:58;5.27;;;4.87;;
2029;SDS011;1020;48.854;8.830;2023-05-15T00:30:25;4.93;;;4.60;;
2029;SDS011;1020;48.854;8.830;2023-05-15T00:32:52;5.33;;;4.87;;
2029;SDS011;1020;48.854;8.830;2023-05-15T00:35:18;4.73;;;4.43;;
2029;SDS011;1020;48.854;8.830;2023-05-15T00:37:45;4.40;;;4.10;;
2029;SDS011;1020;48.854;8.830;2023-05-15T00:40:13;4.40;;;4.10;;
2029;SDS011;1020;48.854;8.830;2023-05-15T00:42:45;4.67;;;4.37;;
2029;SDS011;1020;48.854;8.830;2023-05-15T00:45:14;4.27;;;3.97;;
2029;SDS011;1020;48.854;8.830;2023-05-15T00:47:42;3.87;;;3.57;;
2029;SDS011;1020;48.854;8.830;2023-05-15T00:50:09;4.33;;;4.03;;
2029;SDS011;1020;48.854;8.830;2023-05-15T00:52:36;4.20;;;3.90;;
2029;SDS011;1020;48.854;8.830;2023-05-15T00:55:03;5.00;;;4.60;;
2029;SDS011;1020;48.854;8.830;2023-05-15T00:57:31;5.00;;;4.60;;
2029;SDS011;1020;48.854;8.830;2023-05-15T01:00:00;5.60;;;5.10;;
2029;SDS011;1020;48.854;8.830;2023-05-15T01:02:32;5.20;;;4.80;;
2029;SDS011;1020;48.854;8.830;2023-05-15T01:04:59;4.60;;;4.20;;
2029;SDS011;1020;48.854;8.830;2023-05-15T01:07:26;4.53;;;4.23;;
2029;SDS011;1020;48.854;8.830;2023-05-15T01:09:55;4.17;;;3.93;;
2029;SDS011;1020;48.854;8.830;2023-05-15T01:12:23;5.00;;;4.60;;
2029;SDS011;1020;48.854;8.830;2023-05-15T01:14:52;5.07;;;4.60;;
2029;SDS011;1020;48.854;8.830;2023-05-15T01:17:19;4.83;;;4.47;;
2029;SDS011;1020;48.854;8.830;2023-05-15T01:19:47;4.67;;;4.37;;
2029;SDS011;1020;48.854;8.830;2023-05-15T01:28:04;3.97;;;3.73;;
2029;SDS011;1020;48.854;8.830;2023-05-15T01:30:35;4.60;;;4.30;;
2029;SDS011;1020;48.854;8.830;2023-05-15T01:33:07;4.50;;;4.20;;
2029;SDS011;1020;48.854;8.830;2023-05-15T01:35:42;7.87;;;4.83;;
2029;SDS011;1020;48.854;8.830;2023-05-15T01:38:16;4.30;;;4.00;;
2029;SDS011;1020;48.854;8.830;2023-05-15T01:40:50;4.60;;;4.23;;
2029;SDS011;1020;48.854;8.830;2023-05-15T01:43:23;4.20;;;3.90;;
2029;SDS011;1020;48.854;8.830;2023-05-15T01:45:53;4.80;;;4.50;;
2029;SDS011;1020;48.854;8.830;2023-05-15T01:48:22;7.40;;;6.73;;
2029;SDS011;1020;48.854;8.830;2023-05-15T01:50:53;7.60;;;7.00;;
2029;SDS011;1020;48.854;8.830;2023-05-15T01:53:23;7.00;;;6.20;;
2029;SDS011;1020;48.854;8.830;2023-05-15T01:55:51;7.33;;;4.67;;
2029;SDS011;1020;48.854;8.830;2023-05-15T01:58:19;5.37;;;4.83;;
2029;SDS011;1020;48.854;8.830;2023-05-15T02:00:48;4.60;;;4.20;;
2029;SDS011;1020;48.854;8.830;2023-05-15T02:03:16;4.20;;;3.80;;
2029;SDS011;1020;48.854;8.830;2023-05-15T02:05:44;4.43;;;4.10;;
2029;SDS011;1020;48.854;8.830;2023-05-15T02:08:11;4.73;;;4.43;;
2029;SDS011;1020;48.854;8.830;2023-05-15T02:10:39;5.27;;;4.87;;
2029;SDS011;1020;48.854;8.830;2023-05-15T02:13:07;5.40;;;5.00;;
2029;SDS011;1020;48.854;8.830;2023-05-15T02:15:34;5.50;;;5.10;;
2029;SDS011;1020;48.854;8.830;2023-05-15T02:18:03;6.53;;;6.03;;
2029;SDS011;1020;48.854;8.830;2023-05-15T02:20:30;5.67;;;5.27;;
2029;SDS011;1020;48.854;8.830;2023-05-15T02:22:57;6.23;;;5.73;;
2029;SDS011;1020;48.854;8.830;2023-05-15T02:25:31;5.90;;;5.43;;
2029;SDS011;1020;48.854;8.830;2023-05-15T02:28:03;6.90;;;6.40;;
2029;SDS011;1020;48.854;8.830;2023-05-15T02:30:37;7.10;;;6.50;;
2029;SDS011;1020;48.854;8.830;2023-05-15T02:33:13;6.93;;;6.37;;
2029;SDS011;1020;48.854;8.830;2023-05-15T02:35:50;7.33;;;6.80;;
2029;SDS011;1020;48.854;8.830;2023-05-15T02:38:22;8.93;;;8.13;;
2029;SDS011;1020;48.854;8.830;2023-05-15T02:40:53;7.17;;;6.57;;
2029;SDS011;1020;48.854;8.830;2023-05-15T02:43:22;6.60;;;6.10;;
2029;SDS011;1020;48.854;8.830;2023-05-15T02:45:51;7.30;;;6.70;;
2029;SDS011;1020;48.854;8.830;2023-05-15T02:48:22;7.17;;;6.57;;
2029;SDS011;1020;48.854;8.830;2023-05-15T02:50:50;7.20;;;6.50;;
2029;SDS011;1020;48.854;8.830;2023-05-15T02:53:17;7.30;;;6.70;;
2029;SDS011;1020;48.854;8.830;2023-05-15T02:55:44;7.17;;;6.47;;
2029;SDS011;1020;48.854;8.830;2023-05-15T02:58:10;6.47;;;5.97;;
2029;SDS011;1020;48.854;8.830;2023-05-15T03:00:37;7.20;;;6.60;;
2029;SDS011;1020;48.854;8.830;2023-05-15T03:03:04;7.23;;;6.73;;
2029;SDS011;1020;48.854;8.830;2023-05-15T03:05:32;7.57;;;6.97;;
2029;SDS011;1020;48.854;8.830;2023-05-15T03:07:59;7.10;;;6.50;;
2029;SDS011;1020;48.854;8.830;2023-05-15T03:10:26;7.33;;;6.73;;
2029;SDS011;1020;48.854;8.830;2023-05-15T03:12:54;6.67;;;6.17;;
2029;SDS011;1020;48.854;8.830;2023-05-15T03:15:22;7.83;;;7.13;;
2029;SDS011;1020;48.854;8.830;2023-05-15T03:17:49;5.87;;;5.43;;
2029;SDS011;1020;48.854;8.830;2023-05-15T03:20:15;6.67;;;6.17;;
2029;SDS011;1020;48.854;8.830;2023-05-15T03:22:44;7.00;;;6.40;;
2029;SDS011;1020;48.854;8.830;2023-05-15T03:25:11;7.00;;;6.50;;
2029;SDS011;1020;48.854;8.830;2023-05-15T03:27:37;6.47;;;6.00;;
2029;SDS011;1020;48.854;8.830;2023-05-15T03:30:05;6.90;;;6.40;;
2029;SDS011;1020;48.854;8.830;2023-05-15T03:32:32;7.47;;;6.40;;
2029;SDS011;1020;48.854;8.830;2023-05-15T03:34:59;6.83;;;6.33;;
2029;SDS011;1020;48.854;8.830;2023-05-15T03:37:26;5.70;;;5.20;;
2029;SDS011;1020;48.854;8.830;2023-05-15T03:39:54;5.83;;;5.33;;
2029;SDS011;1020;48.854;8.830;2023-05-15T03:42:21;7.37;;;6.77;;
2029;SDS011;1020;48.854;8.830;2023-05-15T03:44:49;6.10;;;5.70;;
2029;SDS011;1020;48.854;8.830;2023-05-15T03:47:16;6.10;;;5.60;;
2029;SDS011;1020;48.854;8.830;2023-05-15T03:49:44;6.33;;;5.93;;
2029;SDS011;1020;48.854;8.830;2023-05-15T03:52:11;8.17;;;6.80;;
2029;SDS011;1020;48.854;8.830;2023-05-15T03:54:38;7.10;;;6.50;;
2029;SDS011;1020;48.854;8.830;2023-05-15T03:57:06;6.70;;;5.80;;
2029;SDS011;1020;48.854;8.830;2023-05-15T03:59:33;7.13;;;6.63;;
2029;SDS011;1020;48.854;8.830;2023-05-15T04:02:00;7.17;;;6.57;;
2029;SDS011;1020;48.854;8.830;2023-05-15T04:04:26;7.87;;;6.93;;
2029;SDS011;1020;48.854;8.830;2023-05-15T04:06:53;8.80;;;6.80;;
2029;SDS011;1020;48.854;8.830;2023-05-15T04:09:20;7.40;;;6.70;;
2029;SDS011;1020;48.854;8.830;2023-05-15T04:11:47;9.63;;;8.67;;
2029;SDS011;1020;48.854;8.830;2023-05-15T04:14:15;9.23;;;8.53;;
2029;SDS011;1020;48.854;8.830;2023-05-15T04:16:42;9.23;;;8.53;;
2029;SDS011;1020;48.854;8.830;2023-05-15T04:19:08;8.87;;;8.17;;
2029;SDS011;1020;48.854;8.830;2023-05-15T04:21:35;8.73;;;8.03;;
2029;SDS011;1020;48.854;8.830;2023-05-15T04:24:02;9.20;;;8.50;;
2029;SDS011;1020;48.854;8.830;2023-05-15T04:26:29;7.90;;;7.30;;
2029;SDS011;1020;48.854;8.830;2023-05-15T04:28:55;8.30;;;7.60;;
2029;SDS011;1020;48.854;8.830;2023-05-15T04:31:24;7.60;;;7.03;;
2029;SDS011;1020;48.854;8.830;2023-05-15T04:33:51;7.90;;;7.30;;
2029;SDS011;1020;48.854;8.830;2023-05-15T04:36:18;8.30;;;7.50;;
2029;SDS011;1020;48.854;8.830;2023-05-15T04:38:45;8.10;;;7.40;;
2029;SDS011;1020;48.854;8.830;2023-05-15T04:41:12;7.80;;;7.20;;
2029;SDS011;1020;48.854;8.830;2023-05-15T04:43:39;7.83;;;7.23;;
2029;SDS011;1020;48.854;8.830;2023-05-15T04:46:05;8.03;;;7.43;;
2029;SDS011;1020;48.854;8.830;2023-05-15T04:48:33;7.57;;;6.97;;
2029;SDS011;1020;48.854;8.830;2023-05-15T04:51:00;7.60;;;7.00;;
2029;SDS011;1020;48.854;8.830;2023-05-15T04:53:27;9.40;;;8.60;;
2029;SDS011;1020;48.854;8.830;2023-05-15T04:55:53;8.17;;;7.47;;
2029;SDS011;1020;48.854;8.830;2023-05-15T04:58:20;8.30;;;7.60;;
2029;SDS011;1020;48.854;8.830;2023-05-15T05:00:47;8.73;;;7.97;;
2029;SDS011;1020;48.854;8.830;2023-05-15T05:03:14;9.37;;;8.57;;
2029;SDS011;1020;48.854;8.830;2023-05-15T05:05:42;8.23;;;7.53;;
2029;SDS011;1020;48.854;8.830;2023-05-15T05:08:08;8.10;;;7.40;;
2029;SDS011;1020;48.854;8.830;2023-05-15T05:10:35;8.00;;;7.30;;
2029;SDS011;1020;48.854;8.830;2023-05-15T05:13:02;8.97;;;8.17;;
2029;SDS011;1020;48.854;8.830;2023-05-15T05:15:29;8.43;;;7.73;;
2029;SDS011;1020;48.854;8.830;2023-05-15T05:17:55;8.40;;;7.80;;
2029;SDS011;1020;48.854;8.830;2023-05-15T05:20:22;8.53;;;7.73;;
2029;SDS011;1020;48.854;8.830;2023-05-15T05:22:50;8.77;;;8.00;;
2029;SDS011;1020;48.854;8.830;2023-05-15T05:25:17;8.40;;;7.60;;
2029;SDS011;1020;48.854;8.830;2023-05-15T05:27:44;7.97;;;7.27;;
2029;SDS011;1020;48.854;8.830;2023-05-15T05:30:11;9.10;;;8.30;;
2029;SDS011;1020;48.854;8.830;2023-05-15T05:32:39;7.73;;;7.13;;
2029;SDS011;1020;48.854;8.830;2023-05-15T05:35:06;8.03;;;7.33;;
2029;SDS011;1020;48.854;8.830;2023-05-15T05:37:33;8.40;;;7.70;;
2029;SDS011;1020;48.854;8.830;2023-05-15T05:40:01;7.60;;;7.00;;
2029;SDS011;1020;48.854;8.830;2023-05-15T05:42:29;7.70;;;7.00;;
2029;SDS011;1020;48.854;8.830;2023-05-15T05:44:56;7.33;;;6.67;;
2029;SDS011;1020;48.854;8.830;2023-05-15T05:47:23;7.60;;;6.60;;
2029;SDS011;1020;48.854;8.830;2023-05-15T05:49:50;8.40;;;7.70;;
2029;SDS011;1020;48.854;8.830;2023-05-15T05:52:19;7.00;;;6.50;;
2029;SDS011;1020;48.854;8.830;2023-05-15T05:54:45;6.07;;;5.57;;
2029;SDS011;1020;48.854;8.830;2023-05-15T05:57:14;7.00;;;6.50;;
2029;SDS011;1020;48.854;8.830;2023-05-15T05:59:40;6.43;;;5.93;;
2029;SDS011;1020;48.854;8.830;2023-05-15T06:02:07;6.50;;;6.07;;
2029;SDS011;1020;48.854;8.830;2023-05-15T06:04:35;5.90;;;5.50;;
2029;SDS011;1020;48.854;8.830;2023-05-15T06:07:02;6.03;;;5.63;;
2029;SDS011;1020;48.854;8.830;2023-05-15T06:09:29;6.10;;;5.60;;
2029;SDS011;1020;48.854;8.830;2023-05-15T06:11:55;6.20;;;5.60;;
2029;SDS011;1020;48.854;8.830;2023-05-15T06:14:24;5.70;;;5.40;;
2029;SDS011;1020;48.854;8.830;2023-05-15T06:16:50;5.40;;;5.10;;
2029;SDS011;1020;48.854;8.830;2023-05-15T06:19:17;6.30;;;5.80;;
2029;SDS011;1020;48.854;8.830;2023-05-15T06:21:45;6.27;;;5.77;;
2029;SDS011;1020;48.854;8.830;2023-05-15T06:24:12;5.40;;;5.10;;
2029;SDS011;1020;48.854;8.830;2023-05-15T06:26:39;9.90;;;5.60;;
2029;SDS011;1020;48.854;8.830;2023-05-15T06:29:06;6.13;;;5.63;;
2029;SDS011;1020;48.854;8.830;2023-05-15T06:31:34;5.70;;;5.20;;
2029;SDS011;1020;48.854;8.830;2023-05-15T06:34:01;5.80;;;5.40;;
2029;SDS011;1020;48.854;8.830;2023-05-15T06:36:28;5.50;;;5.10;;
2029;SDS011;1020;48.854;8.830;2023-05-15T06:38:55;6.07;;;5.47;;
2029;SDS011;1020;48.854;8.830;2023-05-15T06:41:21;5.40;;;4.90;;
2029;SDS011;1020;48.854;8.830;2023-05-15T06:43:48;6.03;;;5.53;;
2029;SDS011;1020;48.854;8.830;2023-05-15T06:46:15;5.70;;;5.30;;
2029;SDS011;1020;48.854;8.830;2023-05-15T06:48:44;5.63;;;5.20;;
2029;SDS011;1020;48.854;8.830;2023-05-15T06:51:12;4.97;;;4.57;;
2029;SDS011;1020;48.854;8.830;2023-05-15T06:53:39;5.60;;;5.07;;
2029;SDS011;1020;48.854;8.830;2023-05-15T06:56:06;5.57;;;5.17;;
2029;SDS011;1020;48.854;8.830;2023-05-15T06:58:33;5.97;;;5.27;;
2029;SDS011;1020;48.854;8.830;2023-05-15T07:00:59;4.87;;;4.53;;
2029;SDS011;1020;48.854;8.830;2023-05-15T07:03:27;5.53;;;5.13;;
2029;SDS011;1020;48.854;8.830;2023-05-15T07:05:55;5.30;;;4.83;;
2029;SDS011;1020;48.854;8.830;2023-05-15T07:08:23;5.00;;;4.67;;
2029;SDS011;1020;48.854;8.830;2023-05-15T07:10:49;5.83;;;5.33;;
2029;SDS011;1020;48.854;8.830;2023-05-15T07:13:16;4.67;;;4.27;;
2029;SDS011;1020;48.854;8.830;2023-05-15T07:15:46;4.30;;;4.00;;
2029;SDS011;1020;48.854;8.830;2023-05-15T07:18:12;4.23;;;3.93;;
2029;SDS011;1020;48.854;8.830;2023-05-15T07:20:39;4.17;;;3.80;;
2029;SDS011;1020;48.854;8.830;2023-05-15T07:23:07;3.60;;;3.30;;
2029;SDS011;1020;48.854;8.830;2023-05-15T07:25:34;5.50;;;3.60;;
2029;SDS011;1020;48.854;8.830;2023-05-15T07:28:01;5.93;;;4.00;;
2029;SDS011;1020;48.854;8.830;2023-05-15T07:30:28;3.90;;;3.60;;
2029;SDS011;1020;48.854;8.830;2023-05-15T07:32:54;3.80;;;3.50;;
2029;SDS011;1020;48.854;8.830;2023-05-15T07:35:21;3.40;;;3.20;;
2029;SDS011;1020;48.854;8.830;2023-05-15T07:37:48;4.07;;;3.47;;
2029;SDS011;1020;48.854;8.830;2023-05-15T07:40:16;3.43;;;3.23;;
2029;SDS011;1020;48.854;8.830;2023-05-15T07:42:43;2.50;;;2.40;;
2029;SDS011;1020;48.854;8.830;2023-05-15T07:45:10;3.07;;;2.73;;
2029;SDS011;1020;48.854;8.830;2023-05-15T07:47:37;2.57;;;2.47;;
2029;SDS011;1020;48.854;8.830;2023-05-15T07:50:04;3.10;;;2.80;;
2029;SDS011;1020;48.854;8.830;2023-05-15T07:52:31;3.00;;;2.80;;
2029;SDS011;1020;48.854;8.830;2023-05-15T07:54:58;2.87;;;2.77;;
2029;SDS011;1020;48.854;8.830;2023-05-15T07:57:26;3.77;;;2.60;;
2029;SDS011;1020;48.854;8.830;2023-05-15T07:59:53;3.13;;;2.93;;
2029;SDS011;1020;48.854;8.830;2023-05-15T08:02:20;2.87;;;2.77;;
2029;SDS011;1020;48.854;8.830;2023-05-15T08:04:47;3.40;;;3.20;;
2029;SDS011;1020;48.854;8.830;2023-05-15T08:07:14;5.20;;;2.93;;
2029;SDS011;1020;48.854;8.830;2023-05-15T08:09:41;2.70;;;2.50;;
2029;SDS011;1020;48.854;8.830;2023-05-15T08:12:14;3.40;;;3.17;;
2029;SDS011;1020;48.854;8.830;2023-05-15T08:14:46;3.00;;;2.77;;
2029;SDS011;1020;48.854;8.830;2023-05-15T08:17:14;2.93;;;2.83;;
2029;SDS011;1020;48.854;8.830;2023-05-15T08:19:40;3.20;;;3.00;;
2029;SDS011;1020;48.854;8.830;2023-05-15T08:22:07;3.00;;;2.80;;
2029;SDS011;1020;48.854;8.830;2023-05-15T08:24:34;3.03;;;2.83;;
2029;SDS011;1020;48.854;8.830;2023-05-15T08:27:01;2.67;;;2.57;;
2029;SDS011;1020;48.854;8.830;2023-05-15T08:29:29;2.80;;;2.70;;
2029;SDS011;1020;48.854;8.830;2023-05-15T08:31:57;3.40;;;3.03;;
2029;SDS011;1020;48.854;8.830;2023-05-15T08:34:25;3.70;;;3.40;;
2029;SDS011;1020;48.854;8.830;2023-05-15T08:36:52;3.10;;;2.90;;
2029;SDS011;1020;48.854;8.830;2023-05-15T08:39:19;3.20;;;2.90;;
2029;SDS011;1020;48.854;8.830;2023-05-15T08:41:47;2.97;;;2.77;;
2029;SDS011;1020;48.854;8.830;2023-05-15T08:44:21;3.20;;;3.00;;
2029;SDS011;1020;48.854;8.830;2023-05-15T08:46:48;3.57;;;3.37;;
2029;SDS011;1020;48.854;8.830;2023-05-15T08:49:19;3.40;;;3.20;;
2029;SDS011;1020;48.854;8.830;2023-05-15T08:51:52;3.70;;;2.73;;
2029;SDS011;1020;48.854;8.830;2023-05-15T08:54:20;3.20;;;2.97;;
2029;SDS011;1020;48.854;8.830;2023-05-15T08:56:47;3.30;;;3.10;;
2029;SDS011;1020;48.854;8.830;2023-05-15T08:59:14;2.30;;;2.20;;
2029;SDS011;1020;48.854;8.830;2023-05-15T09:01:42;2.97;;;2.77;;
2029;SDS011;1020;48.854;8.830;2023-05-15T09:04:09;2.60;;;2.40;;
2029;SDS011;1020;48.854;8.830;2023-05-15T09:06:37;2.30;;;2.20;;
2029;SDS011;1020;48.854;8.830;2023-05-15T09:09:06;3.10;;;2.90;;
2029;SDS011;1020;48.854;8.830;2023-05-15T09:11:38;2.40;;;2.30;;
2029;SDS011;1020;48.854;8.830;2023-05-15T09:14:08;3.27;;;3.07;;
2029;SDS011;1020;48.854;8.830;2023-05-15T09:16:36;2.80;;;2.30;;
2029;SDS011;1020;48.854;8.830;2023-05-15T09:19:03;2.60;;;2.23;;
2029;SDS011;1020;48.854;8.830;2023-05-15T09:21:30;2.73;;;2.57;;
2029;SDS011;1020;48.854;8.830;2023-05-15T09:26:42;2.80;;;2.60;;
2029;SDS011;1020;48.854;8.830;2023-05-15T09:29:09;2.60;;;2.40;;
2029;SDS011;1020;48.854;8.830;2023-05-15T09:31:36;3.10;;;2.60;;
2029;SDS011;1020;48.854;8.830;2023-05-15T09:34:03;3.00;;;2.80;;
2029;SDS011;1020;48.854;8.830;2023-05-15T09:36:30;2.43;;;2.20;;
2029;SDS011;1020;48.854;8.830;2023-05-15T09:38:58;2.30;;;2.20;;
2029;SDS011;1020;48.854;8.830;2023-05-15T09:41:26;2.60;;;2.43;;
2029;SDS011;1020;48.854;8.830;2023-05-15T09:43:54;3.10;;;2.90;;
2029;SDS011;1020;48.854;8.830;2023-05-15T09:46:21;2.80;;;2.60;;
2029;SDS011;1020;48.854;8.830;2023-05-15T09:48:48;2.50;;;2.40;;
2029;SDS011;1020;48.854;8.830;2023-05-15T09:51:19;2.53;;;2.43;;
2029;SDS011;1020;48.854;8.830;2023-05-15T09:53:47;2.83;;;2.63;;
2029;SDS011;1020;48.854;8.830;2023-05-15T09:56:14;2.73;;;2.53;;
2029;SDS011;1020;48.854;8.830;2023-05-15T09:58:52;2.50;;;2.40;;
2029;SDS011;1020;48.854;8.830;2023-05-15T10:01:19;3.03;;;2.40;;
2029;SDS011;1020;48.854;8.830;2023-05-15T10:03:55;2.70;;;2.60;;
2029;SDS011;1020;48.854;8.830;2023-05-15T10:06:23;2.77;;;2.67;;
2029;SDS011;1020;48.854;8.830;2023-05-15T10:08:50;2.63;;;2.43;;
2029;SDS011;1020;48.854;8.830;2023-05-15T10:11:18;2.53;;;2.43;;
2029;SDS011;1020;48.854;8.830;2023-05-15T10:13:46;2.80;;;2.70;;
2029;SDS011;1020;48.854;8.830;2023-05-15T10:16:15;2.57;;;2.47;;
2029;SDS011;1020;48.854;8.830;2023-05-15T10:18:47;2.37;;;2.20;;
2029;SDS011;1020;48.854;8.830;2023-05-15T10:21:15;2.63;;;2.53;;
2029;SDS011;1020;48.854;8.830;2023-05-15T10:23:44;2.43;;;2.20;;
2029;SDS011;1020;48.854;8.830;2023-05-15T10:26:13;2.57;;;2.37;;
2029;SDS011;1020;48.854;8.830;2023-05-15T10:28:46;2.20;;;2.10;;
2029;SDS011;1020;48.854;8.830;2023-05-15T10:31:15;3.00;;;2.40;;
2029;SDS011;1020;48.854;8.830;2023-05-15T10:33:43;2.37;;;2.23;;
2029;SDS011;1020;48.854;8.830;2023-05-15T10:36:10;2.47;;;2.37;;
2029;SDS011;1020;48.854;8.830;2023-05-15T10:38:38;2.87;;;2.37;;
2029;SDS011;1020;48.854;8.830;2023-05-15T10:41:06;2.17;;;2.07;;
2029;SDS011;1020;48.854;8.830;2023-05-15T10:43:33;2.47;;;2.27;;
2029;SDS011;1020;48.854;8.830;2023-05-15T10:46:01;2.33;;;2.23;;
2029;SDS011;1020;48.854;8.830;2023-05-15T10:48:30;2.20;;;2.10;;
2029;SDS011;1020;48.854;8.830;2023-05-15T10:50:58;1.87;;;1.77;;
2029;SDS011;1020;48.854;8.830;2023-05-15T10:53:26;2.10;;;2.00;;
2029;SDS011;1020;48.854;8.830;2023-05-15T10:55:53;1.70;;;1.60;;
2029;SDS011;1020;48.854;8.830;2023-05-15T10:58:20;2.50;;;2.30;;
2029;SDS011;1020;48.854;8.830;2023-05-15T11:00:48;3.00;;;2.70;;
2029;SDS011;1020;48.854;8.830;2023-05-15T11:03:15;2.50;;;2.40;;
2029;SDS011;1020;48.854;8.830;2023-05-15T11:06:09;2.30;;;2.20;;
2029;SDS011;1020;48.854;8.830;2023-05-15T11:08:37;2.10;;;2.00;;
2029;SDS011;1020;48.854;8.830;2023-05-15T11:11:05;2.20;;;2.10;;
2029;SDS011;1020;48.854;8.830;2023-05-15T11:19:22;1.90;;;1.80;;
2029;SDS011;1020;48.854;8.830;2023-05-15T11:21:54;2.13;;;2.03;;
2029;SDS011;1020;48.854;8.830;2023-05-15T11:24:25;2.20;;;2.10;;
2029;SDS011;1020;48.854;8.830;2023-05-15T11:26:56;2.17;;;2.07;;
2029;SDS011;1020;48.854;8.830;2023-05-15T11:29:24;2.40;;;1.73;;
2029;SDS011;1020;48.854;8.830;2023-05-15T11:31:51;2.20;;;2.10;;
2029;SDS011;1020;48.854;8.830;2023-05-15T11:34:27;2.47;;;2.30;;
2029;SDS011;1020;48.854;8.830;2023-05-15T11:36:56;2.13;;;2.03;;
2029;SDS011;1020;48.854;8.830;2023-05-15T11:39:23;3.20;;;2.77;;
2029;SDS011;1020;48.854;8.830;2023-05-15T11:41:51;2.17;;;2.07;;
2029;SDS011;1020;48.854;8.830;2023-05-15T11:44:19;2.33;;;2.23;;
2029;SDS011;1020;48.854;8.830;2023-05-15T11:46:46;2.00;;;1.90;;
2029;SDS011;1020;48.854;8.830;2023-05-15T11:49:14;2.10;;;2.00;;
2029;SDS011;1020;48.854;8.830;2023-05-15T11:51:43;2.43;;;2.23;;
2029;SDS011;1020;48.854;8.830;2023-05-15T11:54:11;2.10;;;2.00;;
2029;SDS011;1020;48.854;8.830;2023-05-15T11:56:40;2.20;;;2.10;;
2029;SDS011;1020;48.854;8.830;2023-05-15T11:59:09;2.13;;;2.03;;
2029;SDS011;1020;48.854;8.830;2023-05-15T12:01:40;2.00;;;1.90;;
2029;SDS011;1020;48.854;8.830;2023-05-15T12:04:10;3.43;;;2.10;;
2029;SDS011;1020;48.854;8.830;2023-05-15T12:06:39;1.90;;;1.80;;
2029;SDS011;1020;48.854;8.830;2023-05-15T12:09:13;2.30;;;2.20;;
2029;SDS011;1020;48.854;8.830;2023-05-15T12:11:46;2.27;;;2.07;;
2029;SDS011;1020;48.854;8.830;2023-05-15T12:14:14;2.27;;;2.17;;
2029;SDS011;1020;48.854;8.830;2023-05-15T12:16:41;2.40;;;2.30;;
2029;SDS011;1020;48.854;8.830;2023-05-15T12:19:08;2.60;;;2.43;;
2029;SDS011;1020;48.854;8.830;2023-05-15T12:21:35;2.47;;;2.37;;
2029;SDS011;1020;48.854;8.830;2023-05-15T12:24:09;2.27;;;2.07;;
2029;SDS011;1020;48.854;8.830;2023-05-15T12:26:38;2.77;;;2.10;;
2029;SDS011;1020;48.854;8.830;2023-05-15T12:29:05;2.20;;;2.10;;
2029;SDS011;1020;48.854;8.830;2023-05-15T12:31:33;2.53;;;2.33;;
2029;SDS011;1020;48.854;8.830;2023-05-15T12:34:01;2.70;;;2.50;;
2029;SDS011;1020;48.854;8.830;2023-05-15T12:36:28;2.93;;;2.73;;
2029;SDS011;1020;48.854;8.830;2023-05-15T12:38:55;2.63;;;2.33;;
2029;SDS011;1020;48.854;8.830;2023-05-15T12:41:25;3.23;;;2.57;;
2029;SDS011;1020;48.854;8.830;2023-05-15T12:43:54;4.07;;;2.20;;
2029;SDS011;1020;48.854;8.830;2023-05-15T12:46:21;3.10;;;2.80;;
2029;SDS011;1020;48.854;8.830;2023-05-15T12:48:49;2.87;;;2.40;;
2029;SDS011;1020;48.854;8.830;2023-05-15T12:51:16;2.87;;;2.70;;
2029;SDS011;1020;48.854;8.830;2023-05-15T12:53:43;2.60;;;2.40;;
2029;SDS011;1020;48.854;8.830;2023-05-15T12:56:14;3.43;;;3.23;;
2029;SDS011;1020;48.854;8.830;2023-05-15T12:58:41;2.90;;;2.70;;
2029;SDS011;1020;48.854;8.830;2023-05-15T13:01:09;4.40;;;3.47;;
2029;SDS011;1020;48.854;8.830;2023-05-15T13:03:36;4.00;;;3.73;;
2029;SDS011;1020;48.854;8.830;2023-05-15T13:06:04;3.30;;;3.00;;
2029;SDS011;1020;48.854;8.830;2023-05-15T13:08:32;3.10;;;2.93;;
2029;SDS011;1020;48.854;8.830;2023-05-15T13:11:03;3.20;;;3.00;;
2029;SDS011;1020;48.854;8.830;2023-05-15T13:13:40;2.90;;;2.80;;
2029;SDS011;1020;48.854;8.830;2023-05-15T13:16:17;3.00;;;2.80;;
2029;SDS011;1020;48.854;8.830;2023-05-15T13:18:49;2.83;;;2.70;;
2029;SDS011;1020;48.854;8.830;2023-05-15T13:21:16;2.33;;;2.23;;
2029;SDS011;1020;48.854;8.830;2023-05-15T13:23:43;2.97;;;2.67;;
2029;SDS011;1020;48.854;8.830;2023-05-15T13:26:09;3.00;;;2.80;;
2029;SDS011;1020;48.854;8.830;2023-05-15T13:28:36;3.07;;;2.87;;
2029;SDS011;1020;48.854;8.830;2023-05-15T13:31:03;3.00;;;2.80;;
2029;SDS011;1020;48.854;8.830;2023-05-15T13:33:31;2.50;;;2.40;;
2029;SDS011;1020;48.854;8.830;2023-05-15T13:35:59;2.80;;;2.33;;
2029;SDS011;1020;48.854;8.830;2023-05-15T13:38:26;2.00;;;1.90;;
2029;SDS011;1020;48.854;8.830;2023-05-15T13:40:53;2.33;;;2.13;;
2029;SDS011;1020;48.854;8.830;2023-05-15T13:43:20;2.30;;;2.20;;
2029;SDS011;1020;48.854;8.830;2023-05-15T13:45:47;2.37;;;1.80;;
2029;SDS011;1020;48.854;8.830;2023-05-15T13:48:13;2.47;;;2.37;;
2029;SDS011;1020;48.854;8.830;2023-05-15T13:50:42;2.47;;;2.27;;
2029;SDS011;1020;48.854;8.830;2023-05-15T13:53:09;2.70;;;2.50;;
2029;SDS011;1020;48.854;8.830;2023-05-15T13:55:40;2.90;;;2.70;;
2029;SDS011;1020;48.854;8.830;2023-05-15T13:58:07;2.30;;;2.10;;
2029;SDS011;1020;48.854;8.830;2023-05-15T14:00:35;2.63;;;2.40;;
2029;SDS011;1020;48.854;8.830;2023-05-15T14:03:02;3.03;;;2.40;;
2029;SDS011;1020;48.854;8.830;2023-05-15T14:05:29;4.03;;;3.20;;
2029;SDS011;1020;48.854;8.830;2023-05-15T14:07:57;2.60;;;2.50;;
2029;SDS011;1020;48.854;8.830;2023-05-15T14:10:24;2.37;;;2.27;;
2029;SDS011;1020;48.854;8.830;2023-05-15T14:12:51;3.30;;;3.00;;
2029;SDS011;1020;48.854;8.830;2023-05-15T14:15:18;2.97;;;2.80;;
2029;SDS011;1020;48.854;8.830;2023-05-15T14:17:45;3.47;;;3.20;;
2029;SDS011;1020;48.854;8.830;2023-05-15T14:20:12;3.40;;;3.20;;
2029;SDS011;1020;48.854;8.830;2023-05-15T14:22:39;3.33;;;3.03;;
2029;SDS011;1020;48.854;8.830;2023-05-15T14:25:08;4.37;;;4.07;;
2029;SDS011;1020;48.854;8.830;2023-05-15T14:27:36;3.40;;;3.20;;
2029;SDS011;1020;48.854;8.830;2023-05-15T14:30:03;4.00;;;3.70;;
2029;SDS011;1020;48.854;8.830;2023-05-15T14:32:31;4.43;;;4.13;;
2029;SDS011;1020;48.854;8.830;2023-05-15T14:34:58;5.00;;;4.20;;
2029;SDS011;1020;48.854;8.830;2023-05-15T14:37:25;4.93;;;4.53;;
2029;SDS011;1020;48.854;8.830;2023-05-15T14:39:52;5.63;;;4.90;;
2029;SDS011;1020;48.854;8.830;2023-05-15T14:42:20;4.70;;;4.40;;
2029;SDS011;1020;48.854;8.830;2023-05-15T14:44:47;5.97;;;5.57;;
2029;SDS011;1020;48.854;8.830;2023-05-15T14:47:14;6.77;;;5.43;;
2029;SDS011;1020;48.854;8.830;2023-05-15T14:49:41;5.43;;;4.93;;
2029;SDS011;1020;48.854;8.830;2023-05-15T14:52:08;5.80;;;5.40;;
2029;SDS011;1020;48.854;8.830;2023-05-15T14:54:36;6.87;;;6.33;;
2029;SDS011;1020;48.854;8.830;2023-05-15T14:57:03;6.50;;;5.87;;
2029;SDS011;1020;48.854;8.830;2023-05-15T14:59:32;6.33;;;5.93;;
2029;SDS011;1020;48.854;8.830;2023-05-15T15:01:58;5.70;;;5.30;;
2029;SDS011;1020;48.854;8.830;2023-05-15T15:04:25;5.90;;;5.50;;
2029;SDS011;1020;48.854;8.830;2023-05-15T15:06:54;6.07;;;5.50;;
2029;SDS011;1020;48.854;8.830;2023-05-15T15:09:21;5.57;;;5.17;;
2029;SDS011;1020;48.854;8.830;2023-05-15T15:11:48;5.90;;;5.40;;
2029;SDS011;1020;48.854;8.830;2023-05-15T15:14:15;6.10;;;5.53;;
2029;SDS011;1020;48.854;8.830;2023-05-15T15:16:43;5.70;;;5.30;;
2029;SDS011;1020;48.854;8.830;2023-05-15T15:19:11;5.47;;;5.17;;
2029;SDS011;1020;48.854;8.830;2023-05-15T15:21:37;6.47;;;5.97;;
2029;SDS011;1020;48.854;8.830;2023-05-15T15:24:04;6.13;;;5.73;;
2029;SDS011;1020;48.854;8.830;2023-05-15T15:26:32;5.97;;;5.57;;
2029;SDS011;1020;48.854;8.830;2023-05-15T15:28:59;6.40;;;5.87;;
2029;SDS011;1020;48.854;8.830;2023-05-15T15:31:26;6.03;;;5.53;;
2029;SDS011;1020;48.854;8.830;2023-05-15T15:33:56;5.90;;;5.40;;